sensor_id;sensor_type;location;lat;lon;timestamp;pressure;altitude;pressure_sealevel;temperature;humidity
41040;BME280;48586;50.122;18.972;2023-08-30T00:00:22;97526.34;;;15.17;65.14
41040;BME280;48586;50.122;18.972;2023-08-30T00:03:28;97524.09;;;15.21;64.98
41040;BME280;48586;50.122;18.972;2023-08-30T00:06:36;97528.81;;;15.19;64.71
41040;BME280;48586;50.122;18.972;2023-08-30T00:09:43;97526.78;;;15.21;64.85
41040;BME280;48586;50.122;18.972;2023-08-30T00:12:48;97517.00;;;15.20;65.04
41040;BME280;48586;50.122;18.972;2023-08-30T00:15:55;97509.16;;;15.25;64.66
41040;BME280;48586;50.122;18.972;2023-08-30T00:19:01;97503.78;;;15.32;64.99
41040;BME280;48586;50.122;18.972;2023-08-30T00:22:10;97490.72;;;15.35;64.46
41040;BME280;48586;50.122;18.972;2023-08-30T00:25:15;97491.97;;;15.39;64.55
41040;BME280;48586;50.122;18.972;2023-08-30T00:28:20;97483.50;;;15.42;64.38
41040;BME280;48586;50.122;18.972;2023-08-30T00:31:25;97475.56;;;15.41;63.79
41040;BME280;48586;50.122;18.972;2023-08-30T00:34:30;97480.19;;;15.47;64.02
41040;BME280;48586;50.122;18.972;2023-08-30T00:37:37;97490.34;;;15.51;63.84
41040;BME280;48586;50.122;18.972;2023-08-30T00:40:43;97490.34;;;15.51;63.49
41040;BME280;48586;50.122;18.972;2023-08-30T00:43:47;97492.03;;;15.53;63.60
41040;BME280;48586;50.122;18.972;2023-08-30T00:46:52;97493.47;;;15.55;63.40
41040;BME280;48586;50.122;18.972;2023-08-30T00:49:57;97493.06;;;15.58;63.57
41040;BME280;48586;50.122;18.972;2023-08-30T00:53:07;97496.81;;;15.64;63.35
41040;BME280;48586;50.122;18.972;2023-08-30T00:56:12;97485.59;;;15.67;63.62
41040;BME280;48586;50.122;18.972;2023-08-30T00:59:19;97489.56;;;15.64;63.26
41040;BME280;48586;50.122;18.972;2023-08-30T01:02:24;97499.09;;;15.60;62.60
41040;BME280;48586;50.122;18.972;2023-08-30T01:05:29;97508.22;;;15.53;63.02
41040;BME280;48586;50.122;18.972;2023-08-30T01:08:37;97512.69;;;15.39;63.35
41040;BME280;48586;50.122;18.972;2023-08-30T01:11:48;97501.28;;;15.30;63.90
41040;BME280;48586;50.122;18.972;2023-08-30T01:15:04;97487.38;;;15.27;63.77
41040;BME280;48586;50.122;18.972;2023-08-30T01:18:18;97489.03;;;15.28;63.92
41040;BME280;48586;50.122;18.972;2023-08-30T01:21:32;97484.47;;;15.21;64.11
41040;BME280;48586;50.122;18.972;2023-08-30T01:25:00;97488.38;;;15.19;63.66
41040;BME280;48586;50.122;18.972;2023-08-30T01:28:24;97495.22;;;15.15;64.00
41040;BME280;48586;50.122;18.972;2023-08-30T01:31:34;97485.03;;;15.04;64.50
41040;BME280;48586;50.122;18.972;2023-08-30T01:34:42;97481.72;;;15.02;64.30
41040;BME280;48586;50.122;18.972;2023-08-30T01:37:51;97473.84;;;15.00;64.55
41040;BME280;48586;50.122;18.972;2023-08-30T01:40:59;97476.94;;;15.04;64.68
41040;BME280;48586;50.122;18.972;2023-08-30T01:44:08;97490.84;;;15.07;63.80
41040;BME280;48586;50.122;18.972;2023-08-30T01:47:19;97493.91;;;14.98;64.31
41040;BME280;48586;50.122;18.972;2023-08-30T01:50:27;97487.91;;;14.96;64.40
41040;BME280;48586;50.122;18.972;2023-08-30T01:53:32;97500.13;;;14.91;64.64
41040;BME280;48586;50.122;18.972;2023-08-30T01:56:38;97501.38;;;14.96;64.67
41040;BME280;48586;50.122;18.972;2023-08-30T01:59:46;97500.13;;;14.91;64.76
41040;BME280;48586;50.122;18.972;2023-08-30T02:02:51;97503.25;;;14.95;64.51
41040;BME280;48586;50.122;18.972;2023-08-30T02:06:02;97502.63;;;14.93;64.22
41040;BME280;48586;50.122;18.972;2023-08-30T02:09:18;97493.09;;;14.97;64.66
41040;BME280;48586;50.122;18.972;2023-08-30T02:12:34;97497.25;;;15.00;64.51
41040;BME280;48586;50.122;18.972;2023-08-30T02:15:48;97496.63;;;15.04;64.44
41040;BME280;48586;50.122;18.972;2023-08-30T02:18:55;97494.97;;;15.03;64.08
41040;BME280;48586;50.122;18.972;2023-08-30T02:22:01;97495.81;;;15.04;64.44
41040;BME280;48586;50.122;18.972;2023-08-30T02:25:06;97500.34;;;14.97;63.85
41040;BME280;48586;50.122;18.972;2023-08-30T02:28:13;97502.13;;;14.76;64.59
41040;BME280;48586;50.122;18.972;2023-08-30T02:31:20;97495.06;;;14.69;65.37
41040;BME280;48586;50.122;18.972;2023-08-30T02:34:26;97495.44;;;14.65;65.04
41040;BME280;48586;50.122;18.972;2023-08-30T02:37:30;97489.41;;;14.57;65.16
41040;BME280;48586;50.122;18.972;2023-08-30T02:40:35;97486.22;;;14.47;65.27
41040;BME280;48586;50.122;18.972;2023-08-30T02:43:40;97501.22;;;14.34;66.08
41040;BME280;48586;50.122;18.972;2023-08-30T02:46:48;97492.66;;;14.24;66.11
41040;BME280;48586;50.122;18.972;2023-08-30T02:49:52;97496.56;;;14.15;66.41
41040;BME280;48586;50.122;18.972;2023-08-30T02:52:57;97495.69;;;14.08;66.66
41040;BME280;48586;50.122;18.972;2023-08-30T02:56:02;97483.81;;;14.02;67.29
41040;BME280;48586;50.122;18.972;2023-08-30T02:59:08;97465.19;;;14.01;67.16
41040;BME280;48586;50.122;18.972;2023-08-30T03:02:15;97466.28;;;14.06;67.45
41040;BME280;48586;50.122;18.972;2023-08-30T03:05:20;97482.66;;;14.12;66.38
41040;BME280;48586;50.122;18.972;2023-08-30T03:08:25;97486.97;;;14.06;66.72
41040;BME280;48586;50.122;18.972;2023-08-30T03:11:31;97493.63;;;14.10;66.73
41040;BME280;48586;50.122;18.972;2023-08-30T03:14:36;97481.44;;;14.14;66.61
41040;BME280;48586;50.122;18.972;2023-08-30T03:17:44;97469.81;;;14.14;66.61
41040;BME280;48586;50.122;18.972;2023-08-30T03:20:48;97465.94;;;14.23;66.22
41040;BME280;48586;50.122;18.972;2023-08-30T03:24:04;97476.00;;;14.35;66.32
41040;BME280;48586;50.122;18.972;2023-08-30T03:27:10;97474.78;;;14.45;65.81
41040;BME280;48586;50.122;18.972;2023-08-30T03:30:16;97482.84;;;14.45;65.37
41040;BME280;48586;50.122;18.972;2023-08-30T03:33:23;97480.81;;;14.47;65.44
41040;BME280;48586;50.122;18.972;2023-08-30T03:36:28;97481.25;;;14.50;65.32
41040;BME280;48586;50.122;18.972;2023-08-30T03:39:33;97494.97;;;14.55;65.01
41040;BME280;48586;50.122;18.972;2023-08-30T03:42:39;97489.19;;;14.58;64.72
41040;BME280;48586;50.122;18.972;2023-08-30T03:45:44;97499.16;;;14.58;65.05
41040;BME280;48586;50.122;18.972;2023-08-30T03:48:52;97497.50;;;14.63;64.85
41040;BME280;48586;50.122;18.972;2023-08-30T03:51:57;97496.88;;;14.61;64.35
41040;BME280;48586;50.122;18.972;2023-08-30T03:55:04;97504.53;;;14.58;64.63
41040;BME280;48586;50.122;18.972;2023-08-30T03:58:10;97519.78;;;14.51;64.94
41040;BME280;48586;50.122;18.972;2023-08-30T04:01:16;97516.06;;;14.52;64.42
41040;BME280;48586;50.122;18.972;2023-08-30T04:04:24;97513.38;;;14.52;64.70
41040;BME280;48586;50.122;18.972;2023-08-30T04:07:30;97501.75;;;14.51;64.81
41040;BME280;48586;50.122;18.972;2023-08-30T04:10:35;97500.94;;;14.51;64.51
41040;BME280;48586;50.122;18.972;2023-08-30T04:13:41;97505.44;;;14.44;64.79
41040;BME280;48586;50.122;18.972;2023-08-30T04:16:46;97496.94;;;14.40;64.78
41040;BME280;48586;50.122;18.972;2023-08-30T04:19:55;97497.59;;;14.49;64.89
41040;BME280;48586;50.122;18.972;2023-08-30T04:23:01;97498.22;;;14.51;64.69
41040;BME280;48586;50.122;18.972;2023-08-30T04:26:08;97498.03;;;14.52;64.67
41040;BME280;48586;50.122;18.972;2023-08-30T04:29:12;97498.22;;;14.51;64.59
41040;BME280;48586;50.122;18.972;2023-08-30T04:32:18;97505.84;;;14.41;64.31
41040;BME280;48586;50.122;18.972;2023-08-30T04:35:26;97499.78;;;14.32;64.73
41040;BME280;48586;50.122;18.972;2023-08-30T04:38:32;97497.22;;;14.24;64.61
41040;BME280;48586;50.122;18.972;2023-08-30T04:41:37;97504.88;;;14.20;64.66
41040;BME280;48586;50.122;18.972;2023-08-30T04:44:43;97506.25;;;14.10;65.27
41040;BME280;48586;50.122;18.972;2023-08-30T04:47:47;97512.44;;;14.03;65.44
41040;BME280;48586;50.122;18.972;2023-08-30T04:51:03;97506.28;;;13.88;65.31
41040;BME280;48586;50.122;18.972;2023-08-30T04:54:09;97505.22;;;13.83;65.57
41040;BME280;48586;50.122;18.972;2023-08-30T04:57:18;97503.28;;;13.76;65.77
41040;BME280;48586;50.122;18.972;2023-08-30T05:00:25;97501.75;;;13.67;66.38
41040;BME280;48586;50.122;18.972;2023-08-30T05:03:32;97504.25;;;13.69;66.64
41040;BME280;48586;50.122;18.972;2023-08-30T05:06:40;97501.13;;;13.65;66.24
41040;BME280;48586;50.122;18.972;2023-08-30T05:09:47;97502.78;;;13.66;66.55
41040;BME280;48586;50.122;18.972;2023-08-30T05:12:53;97505.84;;;13.63;66.42
41040;BME280;48586;50.122;18.972;2023-08-30T05:15:59;97515.31;;;13.59;66.21
41040;BME280;48586;50.122;18.972;2023-08-30T05:19:04;97498.94;;;13.54;66.71
41040;BME280;48586;50.122;18.972;2023-08-30T05:22:14;97497.50;;;13.58;67.11
41040;BME280;48586;50.122;18.972;2023-08-30T05:25:20;97499.16;;;13.59;66.86
41040;BME280;48586;50.122;18.972;2023-08-30T05:28:26;97503.28;;;13.55;66.84
41040;BME280;48586;50.122;18.972;2023-08-30T05:31:34;97511.34;;;13.55;66.71
41040;BME280;48586;50.122;18.972;2023-08-30T05:35:18;97512.78;;;13.51;66.53
41040;BME280;48586;50.122;18.972;2023-08-30T05:39:04;97514.63;;;13.50;66.53
41040;BME280;48586;50.122;18.972;2023-08-30T05:42:13;97512.56;;;13.53;66.59
41040;BME280;48586;50.122;18.972;2023-08-30T05:45:19;97515.47;;;13.51;66.29
41040;BME280;48586;50.122;18.972;2023-08-30T05:48:24;97522.31;;;13.54;66.38
41040;BME280;48586;50.122;18.972;2023-08-30T05:51:30;97530.38;;;13.54;65.87
41040;BME280;48586;50.122;18.972;2023-08-30T05:54:39;97525.75;;;13.47;66.13
41040;BME280;48586;50.122;18.972;2023-08-30T05:57:45;97531.59;;;13.51;66.05
41040;BME280;48586;50.122;18.972;2023-08-30T06:00:51;97534.09;;;13.53;65.93
41040;BME280;48586;50.122;18.972;2023-08-30T06:03:57;97543.63;;;13.55;66.04
41040;BME280;48586;50.122;18.972;2023-08-30T06:07:04;97529.59;;;13.60;65.46
41040;BME280;48586;50.122;18.972;2023-08-30T06:10:13;97526.88;;;13.60;65.75
41040;BME280;48586;50.122;18.972;2023-08-30T06:13:20;97530.25;;;13.62;65.99
41040;BME280;48586;50.122;18.972;2023-08-30T06:16:25;97543.41;;;13.57;65.32
41040;BME280;48586;50.122;18.972;2023-08-30T06:19:32;97541.97;;;13.54;65.52
41040;BME280;48586;50.122;18.972;2023-08-30T06:22:37;97536.78;;;13.53;65.21
41040;BME280;48586;50.122;18.972;2023-08-30T06:25:53;97545.41;;;13.48;65.67
41040;BME280;48586;50.122;18.972;2023-08-30T06:28:59;97542.72;;;13.48;65.83
41040;BME280;48586;50.122;18.972;2023-08-30T06:32:06;97547.88;;;13.49;65.88
41040;BME280;48586;50.122;18.972;2023-08-30T06:35:11;97545.69;;;13.53;65.81
41040;BME280;48586;50.122;18.972;2023-08-30T06:38:18;97538.94;;;13.64;65.97
41040;BME280;48586;50.122;18.972;2023-08-30T06:41:26;97539.31;;;13.75;65.29
41040;BME280;48586;50.122;18.972;2023-08-30T06:44:32;97542.91;;;13.83;65.77
41040;BME280;48586;50.122;18.972;2023-08-30T06:47:37;97542.94;;;13.89;65.19
41040;BME280;48586;50.122;18.972;2023-08-30T06:50:44;97551.00;;;13.89;64.57
41040;BME280;48586;50.122;18.972;2023-08-30T06:53:51;97553.88;;;13.88;64.37
41040;BME280;48586;50.122;18.972;2023-08-30T06:57:01;97559.53;;;13.93;64.93
41040;BME280;48586;50.122;18.972;2023-08-30T07:00:10;97560.53;;;13.92;64.66
41040;BME280;48586;50.122;18.972;2023-08-30T07:03:17;97559.91;;;13.90;64.60
41040;BME280;48586;50.122;18.972;2023-08-30T07:06:23;97565.38;;;13.96;64.28
41040;BME280;48586;50.122;18.972;2023-08-30T07:09:32;97566.59;;;13.94;64.73
41040;BME280;48586;50.122;18.972;2023-08-30T07:12:41;97568.47;;;14.00;64.27
41040;BME280;48586;50.122;18.972;2023-08-30T07:15:47;97572.66;;;14.02;65.13
41040;BME280;48586;50.122;18.972;2023-08-30T07:18:51;97565.41;;;14.03;63.94
41040;BME280;48586;50.122;18.972;2023-08-30T07:21:56;97572.72;;;14.09;64.15
41040;BME280;48586;50.122;18.972;2023-08-30T07:25:01;97577.69;;;14.12;63.86
41040;BME280;48586;50.122;18.972;2023-08-30T07:28:10;97577.13;;;14.17;64.06
41040;BME280;48586;50.122;18.972;2023-08-30T07:31:15;97575.97;;;14.26;63.34
41040;BME280;48586;50.122;18.972;2023-08-30T07:34:23;97580.94;;;14.29;63.22
41040;BME280;48586;50.122;18.972;2023-08-30T07:37:28;97577.00;;;14.25;62.82
41040;BME280;48586;50.122;18.972;2023-08-30T07:40:35;97584.19;;;14.18;63.10
41040;BME280;48586;50.122;18.972;2023-08-30T07:43:44;97584.56;;;14.15;63.43
41040;BME280;48586;50.122;18.972;2023-08-30T07:46:52;97592.19;;;14.11;63.56
41040;BME280;48586;50.122;18.972;2023-08-30T07:49:58;97588.94;;;14.16;64.12
41040;BME280;48586;50.122;18.972;2023-08-30T07:53:04;97586.66;;;14.19;63.73
41040;BME280;48586;50.122;18.972;2023-08-30T07:56:12;97588.41;;;14.27;63.79
41040;BME280;48586;50.122;18.972;2023-08-30T07:59:20;97585.16;;;14.38;63.79
41040;BME280;48586;50.122;18.972;2023-08-30T08:02:27;97589.09;;;14.35;63.96
41040;BME280;48586;50.122;18.972;2023-08-30T08:05:38;97588.56;;;14.47;64.04
41040;BME280;48586;50.122;18.972;2023-08-30T08:08:44;97598.41;;;14.61;63.95
41040;BME280;48586;50.122;18.972;2023-08-30T08:11:51;97580.25;;;14.76;63.50
41040;BME280;48586;50.122;18.972;2023-08-30T08:15:01;97587.13;;;14.79;62.64
41040;BME280;48586;50.122;18.972;2023-08-30T08:18:07;97587.63;;;14.89;62.04
41040;BME280;48586;50.122;18.972;2023-08-30T08:21:13;97591.09;;;14.83;61.54
41040;BME280;48586;50.122;18.972;2023-08-30T08:24:19;97600.16;;;14.75;61.79
41040;BME280;48586;50.122;18.972;2023-08-30T08:27:26;97606.56;;;14.68;62.22
41040;BME280;48586;50.122;18.972;2023-08-30T08:30:36;97607.75;;;14.65;62.47
41040;BME280;48586;50.122;18.972;2023-08-30T08:33:42;97612.09;;;14.59;62.46
41040;BME280;48586;50.122;18.972;2023-08-30T08:36:49;97611.88;;;14.61;62.58
41040;BME280;48586;50.122;18.972;2023-08-30T08:39:55;97617.31;;;14.68;62.32
41040;BME280;48586;50.122;18.972;2023-08-30T08:43:03;97626.81;;;14.63;61.40
41040;BME280;48586;50.122;18.972;2023-08-30T08:46:13;97628.94;;;14.68;61.78
41040;BME280;48586;50.122;18.972;2023-08-30T08:49:24;97629.44;;;14.78;61.96
41040;BME280;48586;50.122;18.972;2023-08-30T08:52:31;97620.72;;;14.83;62.16
41040;BME280;48586;50.122;18.972;2023-08-30T08:55:39;97615.47;;;15.03;62.27
41040;BME280;48586;50.122;18.972;2023-08-30T08:58:45;97618.84;;;15.18;60.85
41040;BME280;48586;50.122;18.972;2023-08-30T09:01:56;97616.41;;;15.30;60.60
41040;BME280;48586;50.122;18.972;2023-08-30T09:05:01;97617.63;;;15.20;59.33
41040;BME280;48586;50.122;18.972;2023-08-30T09:08:10;97621.72;;;15.10;59.35
41040;BME280;48586;50.122;18.972;2023-08-30T09:11:18;97623.28;;;14.98;60.46
41040;BME280;48586;50.122;18.972;2023-08-30T09:14:25;97610.28;;;15.01;61.34
41040;BME280;48586;50.122;18.972;2023-08-30T09:17:40;97617.22;;;15.23;61.55
41040;BME280;48586;50.122;18.972;2023-08-30T09:20:47;97621.91;;;15.49;60.58
41040;BME280;48586;50.122;18.972;2023-08-30T09:24:00;97616.19;;;15.79;59.65
41040;BME280;48586;50.122;18.972;2023-08-30T09:27:08;97605.84;;;16.02;58.45
41040;BME280;48586;50.122;18.972;2023-08-30T09:30:14;97611.50;;;16.21;57.78
41040;BME280;48586;50.122;18.972;2023-08-30T09:33:35;97618.38;;;16.30;56.76
41040;BME280;48586;50.122;18.972;2023-08-30T09:36:41;97617.13;;;16.32;56.43
41040;BME280;48586;50.122;18.972;2023-08-30T09:39:53;97623.78;;;16.36;57.15
41040;BME280;48586;50.122;18.972;2023-08-30T09:42:59;97620.00;;;16.18;55.89
41040;BME280;48586;50.122;18.972;2023-08-30T09:46:10;97632.84;;;15.96;56.80
41040;BME280;48586;50.122;18.972;2023-08-30T09:49:26;97625.50;;;15.63;57.24
41040;BME280;48586;50.122;18.972;2023-08-30T09:52:37;97633.53;;;15.43;58.14
41040;BME280;48586;50.122;18.972;2023-08-30T09:55:47;97631.75;;;15.29;58.40
41040;BME280;48586;50.122;18.972;2023-08-30T09:58:55;97628.38;;;15.14;59.18
41040;BME280;48586;50.122;18.972;2023-08-30T10:02:05;97618.69;;;15.26;60.56
41040;BME280;48586;50.122;18.972;2023-08-30T10:05:20;97619.75;;;15.38;59.51
41040;BME280;48586;50.122;18.972;2023-08-30T10:08:29;97612.16;;;15.48;58.76
41040;BME280;48586;50.122;18.972;2023-08-30T10:11:46;97619.91;;;15.65;58.85
41040;BME280;48586;50.122;18.972;2023-08-30T10:14:52;97625.94;;;15.67;58.78
41040;BME280;48586;50.122;18.972;2023-08-30T10:18:01;97632.13;;;15.54;58.21
41040;BME280;48586;50.122;18.972;2023-08-30T10:21:21;97620.03;;;15.43;58.44
41040;BME280;48586;50.122;18.972;2023-08-30T10:24:57;97619.94;;;15.30;58.64
41040;BME280;48586;50.122;18.972;2023-08-30T10:32:42;97628.38;;;15.14;59.53
41040;BME280;48586;50.122;18.972;2023-08-30T10:39:40;97631.69;;;15.16;59.34
41040;BME280;48586;50.122;18.972;2023-08-30T10:43:34;97628.81;;;15.17;58.55
41040;BME280;48586;50.122;18.972;2023-08-30T10:46:52;97627.19;;;15.30;59.26
41040;BME280;48586;50.122;18.972;2023-08-30T10:50:05;97606.03;;;15.27;58.36
41040;BME280;48586;50.122;18.972;2023-08-30T11:02:02;97635.72;;;14.92;59.32
41040;BME280;48586;50.122;18.972;2023-08-30T11:05:09;97634.88;;;14.91;59.72
41040;BME280;48586;50.122;18.972;2023-08-30T11:08:16;97628.22;;;14.87;59.66
41040;BME280;48586;50.122;18.972;2023-08-30T11:11:25;97621.50;;;14.77;60.15
41040;BME280;48586;50.122;18.972;2023-08-30T11:14:32;97624.88;;;14.79;60.86
41040;BME280;48586;50.122;18.972;2023-08-30T11:17:38;97631.72;;;14.88;60.11
41040;BME280;48586;50.122;18.972;2023-08-30T11:20:47;97620.03;;;15.09;60.93
41040;BME280;48586;50.122;18.972;2023-08-30T11:23:59;97612.72;;;15.37;59.88
41040;BME280;48586;50.122;18.972;2023-08-30T11:27:08;97609.53;;;15.68;59.17
41040;BME280;48586;50.122;18.972;2023-08-30T11:30:17;97612.91;;;15.90;58.82
41040;BME280;48586;50.122;18.972;2023-08-30T11:33:23;97610.44;;;16.15;58.04
41040;BME280;48586;50.122;18.972;2023-08-30T11:36:31;97599.25;;;16.31;56.47
41040;BME280;48586;50.122;18.972;2023-08-30T11:39:41;97600.28;;;16.57;56.82
41040;BME280;48586;50.122;18.972;2023-08-30T11:42:50;97611.69;;;16.85;55.55
41040;BME280;48586;50.122;18.972;2023-08-30T11:45:59;97613.72;;;17.03;55.21
41040;BME280;48586;50.122;18.972;2023-08-30T11:49:09;97613.94;;;17.08;53.73
41040;BME280;48586;50.122;18.972;2023-08-30T11:52:16;97606.03;;;17.07;52.85
41040;BME280;48586;50.122;18.972;2023-08-30T11:55:23;97606.44;;;17.04;53.53
41040;BME280;48586;50.122;18.972;2023-08-30T11:58:35;97612.06;;;16.95;53.60
41040;BME280;48586;50.122;18.972;2023-08-30T12:01:42;97611.69;;;16.85;53.29
41040;BME280;48586;50.122;18.972;2023-08-30T12:04:50;97621.03;;;16.76;53.65
41040;BME280;48586;50.122;18.972;2023-08-30T12:07:56;97618.16;;;16.64;53.96
41040;BME280;48586;50.122;18.972;2023-08-30T12:11:02;97608.41;;;16.50;53.89
41040;BME280;48586;50.122;18.972;2023-08-30T12:14:10;97611.53;;;16.41;55.03
41040;BME280;48586;50.122;18.972;2023-08-30T12:17:16;97609.63;;;16.34;55.15
41040;BME280;48586;50.122;18.972;2023-08-30T12:20:21;97620.66;;;16.40;55.82
41040;BME280;48586;50.122;18.972;2023-08-30T12:23:29;97615.47;;;16.38;54.45
41040;BME280;48586;50.122;18.972;2023-08-30T12:26:36;97621.50;;;16.27;54.60
41040;BME280;48586;50.122;18.972;2023-08-30T12:29:46;97621.88;;;16.17;55.96
41040;BME280;48586;50.122;18.972;2023-08-30T12:33:00;97618.53;;;16.08;55.65
41040;BME280;48586;50.122;18.972;2023-08-30T12:36:08;97617.25;;;15.91;55.98
41040;BME280;48586;50.122;18.972;2023-08-30T12:39:13;97623.69;;;15.77;56.62
41040;BME280;48586;50.122;18.972;2023-08-30T12:42:18;97633.59;;;15.63;57.46
41040;BME280;48586;50.122;18.972;2023-08-30T12:45:26;97637.50;;;15.54;58.41
41040;BME280;48586;50.122;18.972;2023-08-30T12:48:33;97636.84;;;15.45;57.97
41040;BME280;48586;50.122;18.972;2023-08-30T12:51:38;97628.06;;;15.37;58.83
41040;BME280;48586;50.122;18.972;2023-08-30T12:54:44;97629.72;;;15.31;59.35
41040;BME280;48586;50.122;18.972;2023-08-30T12:57:50;97630.31;;;15.27;59.35
41040;BME280;48586;50.122;18.972;2023-08-30T13:00:58;97637.97;;;15.23;58.96
41040;BME280;48586;50.122;18.972;2023-08-30T13:04:04;97642.47;;;15.16;58.37
41040;BME280;48586;50.122;18.972;2023-08-30T13:07:10;97640.81;;;15.15;58.51
41040;BME280;48586;50.122;18.972;2023-08-30T13:10:15;97641.22;;;15.12;58.79
41040;BME280;48586;50.122;18.972;2023-08-30T13:13:20;97634.81;;;15.13;59.10
41040;BME280;48586;50.122;18.972;2023-08-30T13:16:28;97640.81;;;15.15;59.11
41040;BME280;48586;50.122;18.972;2023-08-30T13:19:34;97641.66;;;15.15;59.10
41040;BME280;48586;50.122;18.972;2023-08-30T13:22:38;97638.75;;;15.17;58.47
41040;BME280;48586;50.122;18.972;2023-08-30T13:25:43;97642.91;;;15.13;58.71
41040;BME280;48586;50.122;18.972;2023-08-30T13:28:48;97634.06;;;14.98;60.13
41040;BME280;48586;50.122;18.972;2023-08-30T13:31:56;97647.97;;;14.94;61.50
41040;BME280;48586;50.122;18.972;2023-08-30T13:35:00;97644.22;;;14.89;60.82
41040;BME280;48586;50.122;18.972;2023-08-30T13:38:06;97647.19;;;14.73;61.20
41040;BME280;48586;50.122;18.972;2023-08-30T13:41:10;97648.56;;;14.62;61.27
41040;BME280;48586;50.122;18.972;2023-08-30T13:44:16;97639.53;;;14.48;61.26
41040;BME280;48586;50.122;18.972;2023-08-30T13:47:23;97650.88;;;14.44;61.90
41040;BME280;48586;50.122;18.972;2023-08-30T13:50:28;97652.69;;;14.36;61.73
41040;BME280;48586;50.122;18.972;2023-08-30T13:53:34;97655.94;;;14.32;62.02
41040;BME280;48586;50.122;18.972;2023-08-30T13:56:39;97664.50;;;14.35;62.49
41040;BME280;48586;50.122;18.972;2023-08-30T13:59:44;97649.47;;;14.48;62.61
41040;BME280;48586;50.122;18.972;2023-08-30T14:02:52;97650.00;;;14.58;62.15
41040;BME280;48586;50.122;18.972;2023-08-30T14:05:57;97646.69;;;14.62;61.67
41040;BME280;48586;50.122;18.972;2023-08-30T14:09:02;97655.88;;;14.68;61.68
41040;BME280;48586;50.122;18.972;2023-08-30T14:12:09;97656.66;;;14.62;61.41
41040;BME280;48586;50.122;18.972;2023-08-30T14:15:14;97652.41;;;14.53;61.10
41040;BME280;48586;50.122;18.972;2023-08-30T14:18:22;97647.75;;;14.40;62.10
41040;BME280;48586;50.122;18.972;2023-08-30T14:21:27;97645.81;;;14.34;62.07
41040;BME280;48586;50.122;18.972;2023-08-30T14:24:31;97645.03;;;14.40;62.69
41040;BME280;48586;50.122;18.972;2023-08-30T14:27:37;97649.47;;;14.48;62.64
41040;BME280;48586;50.122;18.972;2023-08-30T14:30:42;97649.28;;;14.49;62.23
41040;BME280;48586;50.122;18.972;2023-08-30T14:33:49;97643.13;;;14.55;62.56
41040;BME280;48586;50.122;18.972;2023-08-30T14:36:58;97646.16;;;14.74;62.05
41040;BME280;48586;50.122;18.972;2023-08-30T14:40:05;97646.69;;;14.90;61.34
41040;BME280;48586;50.122;18.972;2023-08-30T14:43:11;97651.75;;;15.00;60.61
41040;BME280;48586;50.122;18.972;2023-08-30T14:46:17;97652.00;;;15.12;60.39
41040;BME280;48586;50.122;18.972;2023-08-30T14:49:25;97647.88;;;15.16;60.52
41040;BME280;48586;50.122;18.972;2023-08-30T14:52:30;97650.97;;;15.13;60.22
41040;BME280;48586;50.122;18.972;2023-08-30T14:55:36;97651.53;;;15.02;60.92
41040;BME280;48586;50.122;18.972;2023-08-30T14:58:41;97660.97;;;14.84;61.81
41040;BME280;48586;50.122;18.972;2023-08-30T15:01:50;97659.53;;;14.60;62.19
41040;BME280;48586;50.122;18.972;2023-08-30T15:04:59;97660.88;;;14.50;63.06
41040;BME280;48586;50.122;18.972;2023-08-30T15:08:05;97663.69;;;14.42;63.34
41040;BME280;48586;50.122;18.972;2023-08-30T15:11:12;97664.00;;;14.25;63.65
41040;BME280;48586;50.122;18.972;2023-08-30T15:14:17;97679.31;;;14.25;62.76
41040;BME280;48586;50.122;18.972;2023-08-30T15:17:23;97682.84;;;14.25;63.61
41040;BME280;48586;50.122;18.972;2023-08-30T15:20:31;97687.63;;;14.30;62.87
41040;BME280;48586;50.122;18.972;2023-08-30T15:23:36;97686.59;;;14.31;63.48
41040;BME280;48586;50.122;18.972;2023-08-30T15:26:41;97684.94;;;14.30;63.19
41040;BME280;48586;50.122;18.972;2023-08-30T15:29:47;97677.88;;;14.29;62.93
41040;BME280;48586;50.122;18.972;2023-08-30T15:32:54;97676.22;;;14.28;63.04
41040;BME280;48586;50.122;18.972;2023-08-30T15:36:03;97682.03;;;14.31;62.93
41040;BME280;48586;50.122;18.972;2023-08-30T15:39:08;97682.56;;;14.42;62.42
41040;BME280;48586;50.122;18.972;2023-08-30T15:42:14;97686.47;;;14.39;62.13
41040;BME280;48586;50.122;18.972;2023-08-30T15:45:20;97688.56;;;14.44;62.01
41040;BME280;48586;50.122;18.972;2023-08-30T15:48:27;97695.25;;;14.48;61.47
41040;BME280;48586;50.122;18.972;2023-08-30T15:51:35;97684.28;;;14.49;61.64
41040;BME280;48586;50.122;18.972;2023-08-30T15:54:40;97697.34;;;14.52;61.79
41040;BME280;48586;50.122;18.972;2023-08-30T15:57:45;97702.13;;;14.50;61.60
41040;BME280;48586;50.122;18.972;2023-08-30T16:00:50;97707.31;;;14.52;61.50
41040;BME280;48586;50.122;18.972;2023-08-30T16:03:58;97716.94;;;14.40;61.62
41040;BME280;48586;50.122;18.972;2023-08-30T16:07:07;97704.63;;;14.30;61.39
41040;BME280;48586;50.122;18.972;2023-08-30T16:10:13;97700.56;;;14.20;62.16
41040;BME280;48586;50.122;18.972;2023-08-30T16:13:19;97697.16;;;14.11;62.62
41040;BME280;48586;50.122;18.972;2023-08-30T16:16:24;97701.53;;;14.12;62.39
41040;BME280;48586;50.122;18.972;2023-08-30T16:19:31;97702.56;;;14.11;61.45
41040;BME280;48586;50.122;18.972;2023-08-30T16:22:40;97701.72;;;14.11;61.79
41040;BME280;48586;50.122;18.972;2023-08-30T16:25:46;97710.91;;;14.16;61.78
41040;BME280;48586;50.122;18.972;2023-08-30T16:28:51;97703.66;;;14.17;62.21
41040;BME280;48586;50.122;18.972;2023-08-30T16:31:56;97704.09;;;14.20;61.65
41040;BME280;48586;50.122;18.972;2023-08-30T16:35:01;97710.31;;;14.21;61.73
41040;BME280;48586;50.122;18.972;2023-08-30T16:38:10;97708.06;;;14.24;61.54